sensor_id;sensor_type;location;lat;lon;timestamp;pressure;altitude;pressure_sealevel;temperature;humidity
73240;BME280;61452;40.054;4.110;2023-05-10T00:02:32;101939.34;;;21.37;58.14
73240;BME280;61452;40.054;4.110;2023-05-10T00:07:35;101930.63;;;21.35;58.23
73240;BME280;61452;40.054;4.110;2023-05-10T00:12:37;101938.75;;;21.33;58.14
73240;BME280;61452;40.054;4.110;2023-05-10T00:17:39;101936.28;;;21.30;58.25
73240;BME280;61452;40.054;4.110;2023-05-10T00:22:41;101919.44;;;21.30;58.26
73240;BME280;61452;40.054;4.110;2023-05-10T00:27:43;101914.63;;;21.35;58.16
73240;BME280;61452;40.054;4.110;2023-05-10T00:32:46;101911.81;;;21.36;58.08
73240;BME280;61452;40.054;4.110;2023-05-10T00:37:49;101894.56;;;21.29;58.14
73240;BME280;61452;40.054;4.110;2023-05-10T00:42:52;101888.88;;;21.34;58.03
73240;BME280;61452;40.054;4.110;2023-05-10T00:47:55;101885.13;;;21.36;57.89
73240;BME280;61452;40.054;4.110;2023-05-10T00:52:59;101892.75;;;21.30;58.01
73240;BME280;61452;40.054;4.110;2023-05-10T00:58:01;101889.84;;;21.33;58.02
73240;BME280;61452;40.054;4.110;2023-05-10T01:03:03;101886.06;;;21.35;57.98
73240;BME280;61452;40.054;4.110;2023-05-10T01:08:06;101871.16;;;21.33;57.96
73240;BME280;61452;40.054;4.110;2023-05-10T01:13:11;101858.03;;;21.30;57.99
73240;BME280;61452;40.054;4.110;2023-05-10T01:18:13;101864.47;;;21.27;58.16
73240;BME280;61452;40.054;4.110;2023-05-10T01:49:47;101851.13;;;21.27;57.71
73240;BME280;61452;40.054;4.110;2023-05-10T01:55:00;101841.06;;;21.31;57.82
73240;BME280;61452;40.054;4.110;2023-05-10T02:00:04;101832.09;;;21.32;57.79
73240;BME280;61452;40.054;4.110;2023-05-10T02:05:16;101837.78;;;21.27;57.80
73240;BME280;61452;40.054;4.110;2023-05-10T02:10:19;101831.50;;;21.28;57.81
73240;BME280;61452;40.054;4.110;2023-05-10T02:15:23;101820.69;;;21.30;57.84
73240;BME280;61452;40.054;4.110;2023-05-10T02:20:26;101827.00;;;21.29;57.57
73240;BME280;61452;40.054;4.110;2023-05-10T02:25:29;101826.16;;;21.28;57.69
73240;BME280;61452;40.054;4.110;2023-05-10T02:30:34;101820.56;;;21.31;57.71
73240;BME280;61452;40.054;4.110;2023-05-10T02:35:36;101828.69;;;21.30;57.78
73240;BME280;61452;40.054;4.110;2023-05-10T02:40:41;101826.88;;;21.30;57.74
73240;BME280;61452;40.054;4.110;2023-05-10T02:45:47;101827.72;;;21.31;57.75
73240;BME280;61452;40.054;4.110;2023-05-10T02:50:51;101839.13;;;21.33;57.73
73240;BME280;61452;40.054;4.110;2023-05-10T02:55:56;101831.50;;;21.28;57.61
73240;BME280;61452;40.054;4.110;2023-05-10T03:00:59;101833.16;;;21.29;57.53
73240;BME280;61452;40.054;4.110;2023-05-10T03:06:02;101834.16;;;21.28;57.66
73240;BME280;61452;40.054;4.110;2023-05-10T03:16:29;101827.00;;;21.29;57.43
73240;BME280;61452;40.054;4.110;2023-05-10T03:21:38;101810.25;;;21.27;57.35
73240;BME280;61452;40.054;4.110;2023-05-10T03:26:45;101797.03;;;21.25;57.47
73240;BME280;61452;40.054;4.110;2023-05-10T03:31:51;101787.31;;;21.24;57.42
73240;BME280;61452;40.054;4.110;2023-05-10T03:36:53;101796.28;;;21.23;57.20
73240;BME280;61452;40.054;4.110;2023-05-10T03:41:56;101816.44;;;21.27;56.32
73240;BME280;61452;40.054;4.110;2023-05-10T03:46:59;101813.78;;;21.27;55.91
73240;BME280;61452;40.054;4.110;2023-05-10T03:52:02;101807.69;;;21.25;57.10
73240;BME280;61452;40.054;4.110;2023-05-10T03:57:05;101816.56;;;21.26;56.55
73240;BME280;61452;40.054;4.110;2023-05-10T04:02:08;101800.44;;;21.27;55.69
73240;BME280;61452;40.054;4.110;2023-05-10T04:07:10;101819.97;;;21.28;56.20
73240;BME280;61452;40.054;4.110;2023-05-10T04:12:14;101821.91;;;21.26;56.86
73240;BME280;61452;40.054;4.110;2023-05-10T04:17:16;101818.25;;;21.27;56.30
73240;BME280;61452;40.054;4.110;2023-05-10T04:22:18;101826.38;;;21.25;56.10
73240;BME280;61452;40.054;4.110;2023-05-10T04:27:20;101820.06;;;21.26;57.00
73240;BME280;61452;40.054;4.110;2023-05-10T04:32:23;101829.91;;;21.26;56.37
73240;BME280;61452;40.054;4.110;2023-05-10T04:37:25;101836.19;;;21.25;55.97
73240;BME280;61452;40.054;4.110;2023-05-10T04:42:27;101837.06;;;21.25;56.31
73240;BME280;61452;40.054;4.110;2023-05-10T04:47:29;101839.81;;;21.24;57.22
73240;BME280;61452;40.054;4.110;2023-05-10T04:52:31;101843.34;;;21.24;56.29
73240;BME280;61452;40.054;4.110;2023-05-10T04:57:34;101861.06;;;21.25;55.81
73240;BME280;61452;40.054;4.110;2023-05-10T05:02:36;101862.88;;;21.25;56.95
73240;BME280;61452;40.054;4.110;2023-05-10T05:07:38;101871.84;;;21.24;56.54
73240;BME280;61452;40.054;4.110;2023-05-10T05:12:41;101877.19;;;21.24;56.02
73240;BME280;61452;40.054;4.110;2023-05-10T05:17:43;101873.81;;;21.22;56.23
73240;BME280;61452;40.054;4.110;2023-05-10T05:22:45;101887.88;;;21.24;56.98
73240;BME280;61452;40.054;4.110;2023-05-10T05:27:47;101901.09;;;21.25;56.75
73240;BME280;61452;40.054;4.110;2023-05-10T05:32:49;101906.44;;;21.25;57.10
73240;BME280;61452;40.054;4.110;2023-05-10T05:37:51;101914.56;;;21.24;56.22
73240;BME280;61452;40.054;4.110;2023-05-10T05:42:53;101923.56;;;21.23;56.09
73240;BME280;61452;40.054;4.110;2023-05-10T05:47:56;101914.91;;;21.19;56.73
73240;BME280;61452;40.054;4.110;2023-05-10T05:52:58;101916.50;;;21.22;56.50
73240;BME280;61452;40.054;4.110;2023-05-10T05:58:00;101924.50;;;21.22;56.43
73240;BME280;61452;40.054;4.110;2023-05-10T06:03:03;101920.13;;;21.21;56.76
73240;BME280;61452;40.054;4.110;2023-05-10T06:08:05;101931.56;;;21.23;56.75
73240;BME280;61452;40.054;4.110;2023-05-10T06:13:08;101921.94;;;21.20;56.70
73240;BME280;61452;40.054;4.110;2023-05-10T06:18:10;101919.38;;;21.19;57.09
73240;BME280;61452;40.054;4.110;2023-05-10T06:23:12;101921.94;;;21.20;57.18
73240;BME280;61452;40.054;4.110;2023-05-10T06:28:14;101920.25;;;21.19;56.99
73240;BME280;61452;40.054;4.110;2023-05-10T06:33:16;101923.88;;;21.18;56.90
73240;BME280;61452;40.054;4.110;2023-05-10T06:38:19;101924.84;;;21.17;57.32
73240;BME280;61452;40.054;4.110;2023-05-10T06:43:21;101923.75;;;21.20;57.26
73240;BME280;61452;40.054;4.110;2023-05-10T06:48:23;101928.25;;;21.19;56.97
73240;BME280;61452;40.054;4.110;2023-05-10T06:53:25;101926.31;;;21.21;56.85
73240;BME280;61452;40.054;4.110;2023-05-10T06:58:27;101922.16;;;21.17;56.74
73240;BME280;61452;40.054;4.110;2023-05-10T07:03:30;101931.16;;;21.16;56.55
73240;BME280;61452;40.054;4.110;2023-05-10T07:08:32;101935.50;;;21.17;56.98
73240;BME280;61452;40.054;4.110;2023-05-10T07:13:35;101942.69;;;21.17;56.16
73240;BME280;61452;40.054;4.110;2023-05-10T07:18:38;101951.66;;;21.16;55.85
73240;BME280;61452;40.054;4.110;2023-05-10T07:23:40;101957.00;;;21.16;55.68
73240;BME280;61452;40.054;4.110;2023-05-10T07:28:45;101956.03;;;21.17;55.77
73240;BME280;61452;40.054;4.110;2023-05-10T07:33:47;101964.16;;;21.15;55.23
73240;BME280;61452;40.054;4.110;2023-05-10T07:38:49;101964.22;;;21.14;55.58
73240;BME280;61452;40.054;4.110;2023-05-10T07:43:52;101961.53;;;21.14;55.41
73240;BME280;61452;40.054;4.110;2023-05-10T07:48:54;101981.00;;;21.16;55.59
73240;BME280;61452;40.054;4.110;2023-05-10T07:53:56;101983.84;;;21.13;55.06
73240;BME280;61452;40.054;4.110;2023-05-10T07:58:59;101974.13;;;21.12;56.01
73240;BME280;61452;40.054;4.110;2023-05-10T08:04:02;101963.38;;;21.13;55.89
73240;BME280;61452;40.054;4.110;2023-05-10T08:09:05;101967.75;;;21.14;55.84
73240;BME280;61452;40.054;4.110;2023-05-10T08:14:07;101958.13;;;21.12;55.66
73240;BME280;61452;40.054;4.110;2023-05-10T08:19:09;101965.19;;;21.13;55.94
73240;BME280;61452;40.054;4.110;2023-05-10T08:24:11;101971.38;;;21.13;56.19
73240;BME280;61452;40.054;4.110;2023-05-10T08:29:14;101974.13;;;21.12;55.85
73240;BME280;61452;40.054;4.110;2023-05-10T08:34:17;101968.53;;;21.16;55.92
73240;BME280;61452;40.054;4.110;2023-05-10T08:39:19;101965.06;;;21.14;55.68
73240;BME280;61452;40.054;4.110;2023-05-10T08:44:35;101968.53;;;21.16;55.60
73240;BME280;61452;40.054;4.110;2023-05-10T08:49:38;101976.59;;;21.15;55.10
73240;BME280;61452;40.054;4.110;2023-05-10T08:54:41;101974.88;;;21.14;53.98
73240;BME280;61452;40.054;4.110;2023-05-10T08:59:44;101964.22;;;21.14;53.87
73240;BME280;61452;40.054;4.110;2023-05-10T09:04:46;101974.88;;;21.14;54.32
73240;BME280;61452;40.054;4.110;2023-05-10T09:09:48;101984.53;;;21.16;54.32
73240;BME280;61452;40.054;4.110;2023-05-10T09:14:52;101982.91;;;21.14;54.26
73240;BME280;61452;40.054;4.110;2023-05-10T09:19:59;101981.28;;;21.11;54.18
73240;BME280;61452;40.054;4.110;2023-05-10T09:30:15;101982.81;;;21.15;54.80
73240;BME280;61452;40.054;4.110;2023-05-10T09:35:21;101986.63;;;21.11;55.19
73240;BME280;61452;40.054;4.110;2023-05-10T09:40:25;101982.38;;;21.09;55.12
73240;BME280;61452;40.054;4.110;2023-05-10T09:45:30;101985.81;;;21.11;55.31
73240;BME280;61452;40.054;4.110;2023-05-10T09:50:33;101973.19;;;21.13;55.21
73240;BME280;61452;40.054;4.110;2023-05-10T10:00:42;101956.47;;;21.11;54.76
73240;BME280;61452;40.054;4.110;2023-05-10T10:05:46;101974.88;;;21.14;56.06
73240;BME280;61452;40.054;4.110;2023-05-10T10:10:49;101985.50;;;21.15;55.04
73240;BME280;61452;40.054;4.110;2023-05-10T10:15:55;101983.97;;;21.11;54.87
73240;BME280;61452;40.054;4.110;2023-05-10T10:20:57;101992.72;;;21.13;54.89
73240;BME280;61452;40.054;4.110;2023-05-10T10:26:03;101983.84;;;21.13;55.47
73240;BME280;61452;40.054;4.110;2023-05-10T10:31:27;101991.97;;;21.11;54.62
73240;BME280;61452;40.054;4.110;2023-05-10T10:36:43;101999.16;;;21.11;54.77
73240;BME280;61452;40.054;4.110;2023-05-10T10:41:54;101999.75;;;21.14;55.93
73240;BME280;61452;40.054;4.110;2023-05-10T10:47:21;101995.38;;;21.13;54.77
73240;BME280;61452;40.054;4.110;2023-05-10T10:52:40;101989.00;;;21.16;55.10
73240;BME280;61452;40.054;4.110;2023-05-10T10:57:52;101976.59;;;21.15;55.00
73240;BME280;61452;40.054;4.110;2023-05-10T11:02:58;101991.75;;;21.14;55.10
73240;BME280;61452;40.054;4.110;2023-05-10T11:08:28;101973.28;;;21.11;56.22
73240;BME280;61452;40.054;4.110;2023-05-10T11:13:41;101972.22;;;21.14;54.81
73240;BME280;61452;40.054;4.110;2023-05-10T11:19:02;101970.50;;;21.13;55.72
73240;BME280;61452;40.054;4.110;2023-05-10T11:24:13;101965.06;;;21.14;54.92
73240;BME280;61452;40.054;4.110;2023-05-10T11:29:15;101973.94;;;21.15;55.04
73240;BME280;61452;40.054;4.110;2023-05-10T11:34:31;101965.94;;;21.15;55.93
73240;BME280;61452;40.054;4.110;2023-05-10T11:39:36;101957.84;;;21.16;55.22
73240;BME280;61452;40.054;4.110;2023-05-10T11:44:38;101978.34;;;21.16;55.14
73240;BME280;61452;40.054;4.110;2023-05-10T11:49:44;101975.84;;;21.13;55.21
73240;BME280;61452;40.054;4.110;2023-05-10T11:54:54;101978.41;;;21.14;55.39
73240;BME280;61452;40.054;4.110;2023-05-10T11:59:56;101970.41;;;21.14;54.67
73240;BME280;61452;40.054;4.110;2023-05-10T12:04:59;101974.13;;;21.12;54.52
73240;BME280;61452;40.054;4.110;2023-05-10T12:10:09;101967.00;;;21.12;54.65
73240;BME280;61452;40.054;4.110;2023-05-10T12:15:22;101959.66;;;21.16;55.00
73240;BME280;61452;40.054;4.110;2023-05-10T12:20:27;101957.16;;;21.13;54.62
73240;BME280;61452;40.054;4.110;2023-05-10T12:25:34;101958.13;;;21.12;54.82
73240;BME280;61452;40.054;4.110;2023-05-10T12:30:36;101956.13;;;21.15;55.32
73240;BME280;61452;40.054;4.110;2023-05-10T12:35:49;101949.91;;;21.15;55.44
73240;BME280;61452;40.054;4.110;2023-05-10T12:40:52;101960.78;;;21.12;54.88
73240;BME280;61452;40.054;4.110;2023-05-10T12:45:54;101965.19;;;21.13;55.05
73240;BME280;61452;40.054;4.110;2023-05-10T12:50:57;101970.41;;;21.14;55.39
73240;BME280;61452;40.054;4.110;2023-05-10T12:55:59;101969.66;;;21.12;54.54
73240;BME280;61452;40.054;4.110;2023-05-10T13:01:01;101974.13;;;21.12;54.44
73240;BME280;61452;40.054;4.110;2023-05-10T13:06:05;101975.00;;;21.12;55.16
73240;BME280;61452;40.054;4.110;2023-05-10T13:11:08;101966.03;;;21.13;55.52
73240;BME280;61452;40.054;4.110;2023-05-10T13:16:10;101964.47;;;21.11;54.83
73240;BME280;61452;40.054;4.110;2023-05-10T13:21:12;101961.91;;;21.09;54.84
73240;BME280;61452;40.054;4.110;2023-05-10T13:26:14;101966.28;;;21.10;55.45
73240;BME280;61452;40.054;4.110;2023-05-10T13:31:16;101965.19;;;21.13;55.47
73240;BME280;61452;40.054;4.110;2023-05-10T13:36:18;101961.16;;;21.07;55.25
73240;BME280;61452;40.054;4.110;2023-05-10T13:41:21;101954.00;;;21.08;55.06
73240;BME280;61452;40.054;4.110;2023-05-10T13:46:23;101961.16;;;21.07;55.20
73240;BME280;61452;40.054;4.110;2023-05-10T13:51:25;101961.03;;;21.09;55.06
73240;BME280;61452;40.054;4.110;2023-05-10T13:56:27;101949.50;;;21.08;55.09
73240;BME280;61452;40.054;4.110;2023-05-10T14:01:29;101936.28;;;21.07;55.53
73240;BME280;61452;40.054;4.110;2023-05-10T14:06:32;101931.81;;;21.07;55.82
73240;BME280;61452;40.054;4.110;2023-05-10T14:11:34;101938.84;;;21.08;55.79
73240;BME280;61452;40.054;4.110;2023-05-10T14:16:36;101935.31;;;21.08;55.81
73240;BME280;61452;40.054;4.110;2023-05-10T14:21:38;101937.13;;;21.07;56.13
73240;BME280;61452;40.054;4.110;2023-05-10T14:26:40;101929.97;;;21.08;56.16
73240;BME280;61452;40.054;4.110;2023-05-10T14:31:43;101935.09;;;21.11;55.85
73240;BME280;61452;40.054;4.110;2023-05-10T14:36:45;101930.72;;;21.10;56.24
73240;BME280;61452;40.054;4.110;2023-05-10T14:41:47;101930.72;;;21.10;56.00
73240;BME280;61452;40.054;4.110;2023-05-10T14:46:49;101921.78;;;21.11;56.35
73240;BME280;61452;40.054;4.110;2023-05-10T14:51:51;101917.41;;;21.10;56.51
73240;BME280;61452;40.054;4.110;2023-05-10T14:56:54;101902.09;;;21.12;55.76
73240;BME280;61452;40.054;4.110;2023-05-10T15:01:56;101899.44;;;21.12;56.00
73240;BME280;61452;40.054;4.110;2023-05-10T15:06:59;101902.84;;;21.14;55.24
73240;BME280;61452;40.054;4.110;2023-05-10T15:12:01;101892.28;;;21.12;56.01
73240;BME280;61452;40.054;4.110;2023-05-10T15:17:06;101896.53;;;21.15;55.83
73240;BME280;61452;40.054;4.110;2023-05-10T15:22:09;101893.66;;;21.18;55.54
73240;BME280;61452;40.054;4.110;2023-05-10T15:27:11;101901.88;;;21.15;56.32
73240;BME280;61452;40.054;4.110;2023-05-10T15:32:13;101900.28;;;21.12;56.22
73240;BME280;61452;40.054;4.110;2023-05-10T15:37:15;101903.50;;;21.17;55.58
73240;BME280;61452;40.054;4.110;2023-05-10T15:42:17;101896.22;;;21.19;56.18
73240;BME280;61452;40.054;4.110;2023-05-10T15:47:19;101892.09;;;21.15;56.39
73240;BME280;61452;40.054;4.110;2023-05-10T15:52:22;101888.53;;;21.15;55.97
73240;BME280;61452;40.054;4.110;2023-05-10T15:57:25;101885.97;;;21.13;56.22
73240;BME280;61452;40.054;4.110;2023-05-10T16:02:27;101884.09;;;21.15;55.61
73240;BME280;61452;40.054;4.110;2023-05-10T16:07:29;101887.38;;;21.19;55.81
73240;BME280;61452;40.054;4.110;2023-05-10T16:12:32;101890.16;;;21.17;56.17
73240;BME280;61452;40.054;4.110;2023-05-10T16:17:34;101880.75;;;21.12;56.23
73240;BME280;61452;40.054;4.110;2023-05-10T16:22:36;101884.16;;;21.14;56.17
73240;BME280;61452;40.054;4.110;2023-05-10T16:27:38;101877.00;;;21.14;55.98
73240;BME280;61452;40.054;4.110;2023-05-10T16:32:41;101877.53;;;21.19;56.06
73240;BME280;61452;40.054;4.110;2023-05-10T16:37:43;101874.03;;;21.19;56.14
73240;BME280;61452;40.054;4.110;2023-05-10T16:42:46;101878.84;;;21.14;56.20
73240;BME280;61452;40.054;4.110;2023-05-10T16:47:48;101871.47;;;21.17;55.94
73240;BME280;61452;40.054;4.110;2023-05-10T16:52:50;101865.16;;;21.18;56.14
73240;BME280;61452;40.054;4.110;2023-05-10T16:57:52;101875.84;;;21.18;56.07
73240;BME280;61452;40.054;4.110;2023-05-10T17:03:00;101877.88;;;21.15;56.01
73240;BME280;61452;40.054;4.110;2023-05-10T17:08:02;101871.59;;;21.16;56.00
73240;BME280;61452;40.054;4.110;2023-05-10T17:13:05;101878.50;;;21.18;56.19
73240;BME280;61452;40.054;4.110;2023-05-10T17:18:10;101870.50;;;21.18;56.17
73240;BME280;61452;40.054;4.110;2023-05-10T17:23:12;101880.47;;;21.16;55.90
73240;BME280;61452;40.054;4.110;2023-05-10T17:28:15;101883.13;;;21.16;55.97
73240;BME280;61452;40.054;4.110;2023-05-10T17:33:17;101886.66;;;21.17;55.85
73240;BME280;61452;40.054;4.110;2023-05-10T17:38:19;101887.47;;;21.17;55.67
73240;BME280;61452;40.054;4.110;2023-05-10T17:43:21;101886.50;;;21.18;55.57
73240;BME280;61452;40.054;4.110;2023-05-10T17:48:24;101885.44;;;21.21;55.84
73240;BME280;61452;40.054;4.110;2023-05-10T17:53:26;101888.13;;;21.21;55.80
73240;BME280;61452;40.054;4.110;2023-05-10T17:58:28;101890.88;;;21.19;55.47
73240;BME280;61452;40.054;4.110;2023-05-10T18:03:31;101894.41;;;21.20;55.76
73240;BME280;61452;40.054;4.110;2023-05-10T18:08:33;101900.59;;;21.20;55.77
73240;BME280;61452;40.054;4.110;2023-05-10T18:13:36;101902.41;;;21.20;55.81
73240;BME280;61452;40.054;4.110;2023-05-10T18:18:38;101909.69;;;21.18;55.63
73240;BME280;61452;40.054;4.110;2023-05-10T18:23:40;101909.56;;;21.19;55.77
73240;BME280;61452;40.054;4.110;2023-05-10T18:28:42;101913.09;;;21.20;55.85
73240;BME280;61452;40.054;4.110;2023-05-10T18:33:45;101905.09;;;21.20;55.81
73240;BME280;61452;40.054;4.110;2023-05-10T18:38:47;101911.50;;;21.17;55.85
73240;BME280;61452;40.054;4.110;2023-05-10T18:43:49;101914.16;;;21.17;55.87
73240;BME280;61452;40.054;4.110;2023-05-10T18:48:53;101911.63;;;21.16;55.66
73240;BME280;61452;40.054;4.110;2023-05-10T18:53:55;101915.16;;;21.16;55.79
73240;BME280;61452;40.054;4.110;2023-05-10T18:58:57;101918.78;;;21.15;55.75
73240;BME280;61452;40.054;4.110;2023-05-10T19:03:59;101923.88;;;21.18;55.63
73240;BME280;61452;40.054;4.110;2023-05-10T19:09:02;101918.31;;;21.21;54.60
73240;BME280;61452;40.054;4.110;2023-05-10T19:14:04;101927.50;;;21.17;55.54
73240;BME280;61452;40.054;4.110;2023-05-10T19:19:06;101932.03;;;21.17;55.60
73240;BME280;61452;40.054;4.110;2023-05-10T19:24:08;101939.25;;;21.15;55.51
73240;BME280;61452;40.054;4.110;2023-05-10T19:29:13;101943.50;;;21.17;53.04
73240;BME280;61452;40.054;4.110;2023-05-10T19:34:15;101946.06;;;21.19;52.70
73240;BME280;61452;40.054;4.110;2023-05-10T19:39:17;101955.88;;;21.18;55.25
73240;BME280;61452;40.054;4.110;2023-05-10T19:44:20;101962.94;;;21.19;53.94
73240;BME280;61452;40.054;4.110;2023-05-10T19:49:24;101962.09;;;21.19;52.60
73240;BME280;61452;40.054;4.110;2023-05-10T19:54:27;101970.94;;;21.19;52.63
73240;BME280;61452;40.054;4.110;2023-05-10T19:59:29;101965.72;;;21.18;55.02
73240;BME280;61452;40.054;4.110;2023-05-10T20:04:31;101975.44;;;21.19;53.96
73240;BME280;61452;40.054;4.110;2023-05-10T20:09:34;101981.72;;;21.18;52.77
73240;BME280;61452;40.054;4.110;2023-05-10T20:14:36;101989.72;;;21.18;53.00
73240;BME280;61452;40.054;4.110;2023-05-10T20:19:39;101991.69;;;21.16;54.79
73240;BME280;61452;40.054;4.110;2023-05-10T20:24:41;101989.72;;;21.18;54.06
73240;BME280;61452;40.054;4.110;2023-05-10T20:29:43;101988.06;;;21.17;52.90
73240;BME280;61452;40.054;4.110;2023-05-10T20:34:45;101989.00;;;21.16;52.93
73240;BME280;61452;40.054;4.110;2023-05-10T20:39:47;101983.69;;;21.16;55.08
73240;BME280;61452;40.054;4.110;2023-05-10T20:44:51;101985.38;;;21.17;54.98
73240;BME280;61452;40.054;4.110;2023-05-10T20:49:53;101983.53;;;21.17;53.59
73240;BME280;61452;40.054;4.110;2023-05-10T20:54:55;101984.38;;;21.18;52.25
73240;BME280;61452;40.054;4.110;2023-05-10T20:59:57;101988.06;;;21.17;51.86
73240;BME280;61452;40.054;4.110;2023-05-10T21:04:59;101985.38;;;21.17;53.49
73240;BME280;61452;40.054;4.110;2023-05-10T21:10:01;101983.69;;;21.16;52.58
73240;BME280;61452;40.054;4.110;2023-05-10T21:15:04;101982.81;;;21.15;51.98
73240;BME280;61452;40.054;4.110;2023-05-10T21:20:07;101983.75;;;21.14;52.07
73240;BME280;61452;40.054;4.110;2023-05-10T21:25:09;101990.91;;;21.14;53.86
73240;BME280;61452;40.054;4.110;2023-05-10T21:30:11;101988.16;;;21.15;51.88
73240;BME280;61452;40.054;4.110;2023-05-10T21:35:13;101981.00;;;21.16;51.16
73240;BME280;61452;40.054;4.110;2023-05-10T21:40:16;101981.19;;;21.13;51.24
73240;BME280;61452;40.054;4.110;2023-05-10T21:45:19;101980.47;;;21.11;54.08
73240;BME280;61452;40.054;4.110;2023-05-10T21:50:21;101990.03;;;21.13;51.74
73240;BME280;61452;40.054;4.110;2023-05-10T21:55:23;101982.91;;;21.14;51.10
73240;BME280;61452;40.054;4.110;2023-05-10T22:00:25;101979.38;;;21.13;51.29
73240;BME280;61452;40.054;4.110;2023-05-10T22:05:28;101988.22;;;21.14;53.46
73240;BME280;61452;40.054;4.110;2023-05-10T22:10:30;101980.34;;;21.12;51.29
73240;BME280;61452;40.054;4.110;2023-05-10T22:15:32;101985.66;;;21.12;50.99
73240;BME280;61452;40.054;4.110;2023-05-10T22:20:37;101986.53;;;21.13;51.80
73240;BME280;61452;40.054;4.110;2023-05-10T22:25:39;101991.97;;;21.11;53.97
73240;BME280;61452;40.054;4.110;2023-05-10T22:30:42;101981.19;;;21.13;53.65
73240;BME280;61452;40.054;4.110;2023-05-10T22:35:44;101978.88;;;21.08;54.49
73240;BME280;61452;40.054;4.110;2023-05-10T22:40:46;101981.28;;;21.11;52.34
73240;BME280;61452;40.054;4.110;2023-05-10T22:45:49;101985.81;;;21.11;52.29
73240;BME280;61452;40.054;4.110;2023-05-10T22:50:51;101988.56;;;21.09;54.64
73240;BME280;61452;40.054;4.110;2023-05-10T22:55:53;101986.63;;;21.11;53.91
73240;BME280;61452;40.054;4.110;2023-05-10T23:00:55;101985.66;;;21.12;52.68
73240;BME280;61452;40.054;4.110;2023-05-10T23:05:57;101983.97;;;21.11;53.00
73240;BME280;61452;40.054;4.110;2023-05-10T23:10:59;101984.09;;;21.10;54.81
73240;BME280;61452;40.054;4.110;2023-05-10T23:16:05;101973.44;;;21.10;53.45
73240;BME280;61452;40.054;4.110;2023-05-10T23:21:07;101978.75;;;21.10;52.84
73240;BME280;61452;40.054;4.110;2023-05-10T23:26:09;101976.94;;;21.10;52.77
73240;BME280;61452;40.054;4.110;2023-05-10T23:31:12;101983.25;;;21.09;53.82
73240;BME280;61452;40.054;4.110;2023-05-10T23:36:14;101967.94;;;21.11;53.79
73240;BME280;61452;40.054;4.110;2023-05-10T23:41:16;101975.25;;;21.09;52.99
73240;BME280;61452;40.054;4.110;2023-05-10T23:46:18;101970.13;;;21.06;53.04
73240;BME280;61452;40.054;4.110;2023-05-10T23:51:20;101970.84;;;21.08;53.38
73240;BME280;61452;40.054;4.110;2023-05-10T23:56:22;101970.97;;;21.07;53.36
